Time;durP1;ratioP1;P1;durP2;ratioP2;P2;SDS_P1;SDS_P2;PMS_P1;PMS_P2;Temp;Humidity;BMP_temperature;BMP_pressure;BME280_temperature;BME280_humidity;BME280_pressure;Samples;Min_cycle;Max_cycle;Signal;HPM_P1;HPM_P2
2023/04/14 00:01:26;;;;;;;9.23;5.55;;;10.50;99.90;;;;;;4978932;28;20441;-73
2023/04/14 00:03:52;;;;;;;10.68;5.85;;;10.50;99.90;;;;;;4996530;28;20437;-73
2023/04/14 00:06:18;;;;;;;9.20;5.60;;;10.50;99.90;;;;;;4998085;28;21044;-73
2023/04/14 00:08:45;;;;;;;11.70;6.00;;;10.50;99.90;;;;;;4983394;28;20419;-73
2023/04/14 00:11:11;;;;;;;8.73;5.22;;;10.50;99.90;;;;;;4984235;28;20438;-73
2023/04/14 00:13:37;;;;;;;9.15;5.90;;;10.50;99.90;;;;;;5006786;28;20403;-73
2023/04/14 00:16:05;;;;;;;10.00;5.70;;;10.50;99.90;;;;;;4980838;28;20438;-73
2023/04/14 00:18:32;;;;;;;9.50;5.53;;;10.50;99.90;;;;;;4977113;28;20428;-73
2023/04/14 00:20:58;;;;;;;11.70;5.60;;;10.50;99.90;;;;;;4976549;28;20784;-73
2023/04/14 00:23:24;;;;;;;8.80;5.40;;;10.60;99.90;;;;;;4974831;28;20426;-73
2023/04/14 00:25:51;;;;;;;7.07;5.20;;;10.50;99.90;;;;;;4978001;28;20428;-73
2023/04/14 00:28:17;;;;;;;9.00;5.45;;;10.50;99.90;;;;;;4986432;28;20413;-74
2023/04/14 00:30:43;;;;;;;11.80;5.72;;;10.50;99.90;;;;;;4964780;28;20761;-74
2023/04/14 00:33:10;;;;;;;9.32;6.00;;;10.50;99.90;;;;;;4980365;28;21181;-73
2023/04/14 00:35:36;;;;;;;10.32;5.90;;;10.50;99.90;;;;;;4981708;28;20432;-73
2023/04/14 00:38:02;;;;;;;11.27;5.88;;;10.50;99.90;;;;;;4976576;28;20451;-73
2023/04/14 00:40:29;;;;;;;8.50;5.60;;;10.50;99.90;;;;;;4985652;28;20437;-73
2023/04/14 00:42:56;;;;;;;10.10;5.78;;;10.50;99.90;;;;;;4980437;28;20414;-73
2023/04/14 00:45:24;;;;;;;12.13;5.75;;;10.50;99.90;;;;;;5019746;28;20415;-73
2023/04/14 00:47:50;;;;;;;9.75;5.53;;;10.50;99.90;;;;;;4966953;28;20410;-73
2023/04/14 00:50:20;;;;;;;8.93;5.28;;;10.50;99.90;;;;;;4977154;28;20418;-75
2023/04/14 00:52:49;;;;;;;8.17;5.57;;;10.50;99.90;;;;;;4974245;28;20420;-74
2023/04/14 00:55:19;;;;;;;8.13;5.50;;;10.50;99.90;;;;;;4980997;28;20461;-74
2023/04/14 00:57:46;;;;;;;9.13;5.60;;;10.50;99.90;;;;;;4985738;28;21105;-74
2023/04/14 01:00:14;;;;;;;9.13;5.50;;;10.40;99.90;;;;;;4964651;28;20951;-74
2023/04/14 01:02:41;;;;;;;9.52;5.57;;;10.40;99.90;;;;;;4978721;28;20488;-75
2023/04/14 01:05:08;;;;;;;10.50;5.17;;;10.40;99.90;;;;;;4978228;28;20432;-75
2023/04/14 01:07:35;;;;;;;8.40;5.20;;;10.30;99.90;;;;;;4971837;28;20416;-75
2023/04/14 01:10:03;;;;;;;8.00;5.53;;;10.30;99.90;;;;;;4981781;28;20418;-75
2023/04/14 01:13:20;;;;;;;10.47;5.53;;;10.40;99.90;;;;;;4986303;28;20405;-75
2023/04/14 01:16:00;;;;;;;9.60;5.50;;;10.40;99.90;;;;;;4974691;28;20426;-72
2023/04/14 01:18:38;;;;;;;9.65;5.72;;;10.50;99.90;;;;;;4973865;28;20426;-72
2023/04/14 01:21:13;;;;;;;10.93;5.35;;;10.40;99.90;;;;;;4988742;28;20781;-73
2023/04/14 01:24:00;;;;;;;11.38;5.13;;;10.50;99.90;;;;;;4978200;28;20405;-73
2023/04/14 01:26:30;;;;;;;7.50;4.78;;;10.40;99.90;;;;;;4997806;28;20452;-72
2023/04/14 01:30:11;;;;;;;9.65;5.47;;;10.40;99.90;;;;;;4977612;28;20454;-73
2023/04/14 01:32:45;;;;;;;9.73;5.45;;;10.40;99.90;;;;;;4978479;28;20424;-75
2023/04/14 01:35:37;;;;;;;11.20;5.57;;;10.30;99.90;;;;;;4971435;28;20813;-75
2023/04/14 01:38:11;;;;;;;10.93;5.50;;;10.30;99.90;;;;;;4979034;28;20420;-74
2023/04/14 01:40:41;;;;;;;10.40;5.60;;;10.30;99.90;;;;;;4971802;28;21078;-75
2023/04/14 01:43:13;;;;;;;11.35;5.45;;;10.30;99.90;;;;;;4983663;28;20946;-75
2023/04/14 01:45:54;;;;;;;8.85;5.22;;;10.40;99.90;;;;;;5005056;28;20419;-75
2023/04/14 01:48:22;;;;;;;9.05;5.30;;;10.40;99.90;;;;;;4972455;28;20891;-75
2023/04/14 01:50:49;;;;;;;8.75;5.53;;;10.30;99.90;;;;;;4977563;28;20431;-75
2023/04/14 01:53:18;;;;;;;7.93;4.88;;;10.30;99.90;;;;;;4976937;28;20420;-75
2023/04/14 01:55:46;;;;;;;11.57;5.43;;;10.30;99.90;;;;;;4977909;28;20426;-75
2023/04/14 01:58:16;;;;;;;10.50;5.07;;;10.30;99.90;;;;;;4976330;28;20416;-75
2023/04/14 02:00:44;;;;;;;10.02;5.00;;;10.30;99.90;;;;;;4981119;28;20503;-75
2023/04/14 02:03:13;;;;;;;10.93;5.40;;;10.20;99.90;;;;;;4975746;28;20426;-75
2023/04/14 02:05:41;;;;;;;12.15;5.35;;;10.10;99.90;;;;;;4974768;28;21274;-74
2023/04/14 02:08:12;;;;;;;9.63;5.25;;;10.10;99.90;;;;;;4977759;28;20479;-74
2023/04/14 02:10:44;;;;;;;8.60;5.30;;;10.10;99.90;;;;;;4984155;28;20427;-75
2023/04/14 02:13:13;;;;;;;10.02;5.10;;;10.20;99.90;;;;;;4984987;28;20435;-74
2023/04/14 02:15:40;;;;;;;9.90;5.15;;;10.30;99.90;;;;;;4976444;28;20419;-74
2023/04/14 02:18:07;;;;;;;11.20;5.03;;;10.20;99.90;;;;;;4980016;28;20455;-74
2023/04/14 02:20:37;;;;;;;11.30;5.70;;;10.30;99.90;;;;;;4996238;28;20420;-74
2023/04/14 02:23:03;;;;;;;9.20;5.50;;;10.30;99.90;;;;;;4982732;28;20415;-74
2023/04/14 02:25:33;;;;;;;8.90;5.07;;;10.40;99.90;;;;;;4982377;28;20436;-74
2023/04/14 02:28:06;;;;;;;10.50;4.88;;;10.30;99.90;;;;;;4982177;28;20554;-74
2023/04/14 02:30:42;;;;;;;10.82;4.95;;;10.20;99.90;;;;;;4980746;28;20937;-75
2023/04/14 02:33:14;;;;;;;9.85;5.13;;;10.20;99.90;;;;;;4978540;28;20419;-75
2023/04/14 02:36:03;;;;;;;9.18;5.10;;;10.30;99.90;;;;;;4981605;28;21223;-75
2023/04/14 02:38:44;;;;;;;9.13;5.25;;;10.30;99.90;;;;;;4973972;28;20420;-75
2023/04/14 02:41:28;;;;;;;8.20;4.90;;;10.30;99.90;;;;;;4961959;28;20424;-75
2023/04/14 02:44:25;;;;;;;9.27;5.20;;;10.30;99.90;;;;;;4999917;28;20416;-75
2023/04/14 02:47:09;;;;;;;10.70;5.00;;;10.30;99.90;;;;;;4977342;28;20480;-75
2023/04/14 02:49:49;;;;;;;12.83;5.40;;;10.30;99.90;;;;;;4981452;28;20426;-75
2023/04/14 02:52:19;;;;;;;10.77;5.10;;;10.30;99.90;;;;;;4995670;28;20420;-75
2023/04/14 02:54:48;;;;;;;10.95;5.20;;;10.30;99.90;;;;;;4990239;28;20416;-75
2023/04/14 02:57:15;;;;;;;9.77;4.97;;;10.30;99.90;;;;;;4984429;28;20426;-74
2023/04/14 02:59:44;;;;;;;9.82;5.10;;;10.30;99.90;;;;;;4980239;28;20444;-75
2023/04/14 03:02:12;;;;;;;8.65;5.10;;;10.20;99.90;;;;;;4994915;28;20425;-75
2023/04/14 03:04:40;;;;;;;9.35;4.97;;;10.20;99.90;;;;;;4979869;28;20448;-75
2023/04/14 03:07:10;;;;;;;8.35;5.38;;;10.20;99.90;;;;;;4977710;28;20422;-75
2023/04/14 03:09:39;;;;;;;10.32;4.97;;;10.20;99.90;;;;;;4982847;28;20422;-75
2023/04/14 03:12:06;;;;;;;10.00;4.90;;;10.20;99.90;;;;;;4974175;28;20405;-75
2023/04/14 03:14:35;;;;;;;10.65;5.13;;;10.20;99.90;;;;;;4980913;28;20434;-75
2023/04/14 03:17:04;;;;;;;7.47;5.00;;;10.20;99.90;;;;;;4977921;28;20509;-75
2023/04/14 03:19:32;;;;;;;11.37;5.20;;;10.30;99.90;;;;;;4987035;28;20444;-76
2023/04/14 03:22:01;;;;;;;10.95;5.00;;;10.30;99.90;;;;;;4985856;28;20438;-76
2023/04/14 03:24:30;;;;;;;10.82;5.15;;;10.30;99.90;;;;;;4974623;28;20499;-75
2023/04/14 03:27:09;;;;;;;10.73;5.03;;;10.20;99.90;;;;;;4972776;28;20418;-76
2023/04/14 03:29:43;;;;;;;9.38;5.00;;;10.20;99.90;;;;;;4960680;28;20444;-76
2023/04/14 03:32:12;;;;;;;10.60;5.38;;;10.20;99.90;;;;;;4975554;28;20423;-76
2023/04/14 03:34:43;;;;;;;10.75;5.40;;;10.30;99.90;;;;;;4989162;28;21071;-76
2023/04/14 03:37:10;;;;;;;11.30;5.15;;;10.30;99.90;;;;;;5005571;28;20421;-76
2023/04/14 03:39:39;;;;;;;9.40;4.93;;;10.30;99.90;;;;;;4984274;28;20426;-76
2023/04/14 03:42:07;;;;;;;8.68;4.85;;;10.20;99.90;;;;;;4978687;28;20509;-76
2023/04/14 03:44:37;;;;;;;10.07;5.13;;;10.20;99.90;;;;;;4968088;28;20873;-76
2023/04/14 03:47:06;;;;;;;9.23;4.82;;;10.30;99.90;;;;;;4990769;28;20825;-75
2023/04/14 03:49:38;;;;;;;9.40;4.90;;;10.30;99.90;;;;;;5001865;28;20416;-76
2023/04/14 03:52:09;;;;;;;9.57;5.00;;;10.30;99.90;;;;;;4973397;28;20785;-75
2023/04/14 03:54:41;;;;;;;6.93;4.53;;;10.30;99.90;;;;;;4980099;28;20460;-75
2023/04/14 03:57:12;;;;;;;9.45;4.70;;;10.30;99.90;;;;;;4981229;28;20425;-75
2023/04/14 03:59:40;;;;;;;10.13;4.50;;;10.30;99.90;;;;;;4989418;28;21462;-74
2023/04/14 04:02:09;;;;;;;7.68;4.60;;;10.30;99.90;;;;;;4977570;28;20409;-75
2023/04/14 04:04:36;;;;;;;8.60;4.63;;;10.30;99.90;;;;;;4977419;28;20869;-75
2023/04/14 04:07:04;;;;;;;9.67;4.90;;;10.30;99.90;;;;;;4983765;28;20455;-75
2023/04/14 04:09:34;;;;;;;9.63;4.30;;;10.30;99.90;;;;;;4985630;28;20426;-75
2023/04/14 04:12:03;;;;;;;9.30;4.90;;;10.20;99.90;;;;;;5009286;28;20424;-75
2023/04/14 04:14:32;;;;;;;10.87;4.70;;;10.30;99.90;;;;;;4988652;28;20420;-75
2023/04/14 04:17:06;;;;;;;9.73;4.60;;;10.30;99.90;;;;;;4984954;28;21275;-75
2023/04/14 04:19:35;;;;;;;7.95;4.68;;;10.30;99.90;;;;;;4976845;28;20423;-75
2023/04/14 04:22:03;;;;;;;9.93;4.60;;;10.30;99.90;;;;;;4972557;28;20416;-75
2023/04/14 04:24:37;;;;;;;9.32;4.70;;;10.40;99.90;;;;;;4982198;28;20423;-75
2023/04/14 04:27:04;;;;;;;9.93;4.65;;;10.40;99.90;;;;;;4976477;28;20423;-75
2023/04/14 04:29:31;;;;;;;10.27;5.18;;;10.50;99.90;;;;;;4971879;28;20428;-75
2023/04/14 04:31:58;;;;;;;8.45;4.93;;;10.50;99.90;;;;;;4978552;28;20484;-75
2023/04/14 04:34:25;;;;;;;9.35;4.65;;;10.50;99.90;;;;;;4970129;28;20899;-75
2023/04/14 04:36:52;;;;;;;8.25;4.70;;;10.60;99.90;;;;;;4974566;28;20594;-75
2023/04/14 04:39:19;;;;;;;10.35;5.05;;;10.60;99.90;;;;;;4962853;28;20460;-75
2023/04/14 04:41:45;;;;;;;10.45;4.80;;;10.60;99.90;;;;;;4987014;28;20416;-73
2023/04/14 04:44:11;;;;;;;10.77;4.70;;;10.70;99.90;;;;;;4962759;28;20414;-74
2023/04/14 04:46:55;;;;;;;11.90;5.40;;;10.80;99.90;;;;;;4984461;28;20813;-74
2023/04/14 04:49:22;;;;;;;10.27;5.13;;;10.90;99.90;;;;;;4959670;28;20501;-74
2023/04/14 04:51:49;;;;;;;9.88;5.60;;;11.00;99.90;;;;;;4975824;28;20421;-74
2023/04/14 04:54:15;;;;;;;10.50;5.28;;;11.10;99.90;;;;;;4992943;28;20670;-74
2023/04/14 04:56:42;;;;;;;10.60;5.23;;;11.20;99.90;;;;;;4958202;28;20477;-75
2023/04/14 04:59:08;;;;;;;6.38;4.40;;;11.20;99.90;;;;;;4977578;28;20405;-74
2023/04/14 05:01:35;;;;;;;9.20;4.90;;;11.30;99.90;;;;;;4978883;28;20446;-74
2023/04/14 05:04:01;;;;;;;11.05;5.20;;;11.40;99.90;;;;;;4973290;28;20800;-74
2023/04/14 05:06:27;;;;;;;9.68;5.00;;;11.50;99.90;;;;;;4972909;28;20422;-74
2023/04/14 05:08:54;;;;;;;11.23;5.13;;;11.60;99.90;;;;;;4972811;28;20410;-75
2023/04/14 05:11:21;;;;;;;9.40;5.22;;;11.80;99.90;;;;;;4972973;28;20418;-75
2023/04/14 05:13:48;;;;;;;11.40;5.10;;;11.80;99.90;;;;;;4975618;28;20424;-75
2023/04/14 05:16:15;;;;;;;9.70;4.93;;;11.90;99.90;;;;;;4990487;28;20877;-75
2023/04/14 05:18:42;;;;;;;9.73;5.00;;;12.00;99.90;;;;;;4973677;28;20419;-75
2023/04/14 05:21:13;;;;;;;10.15;4.68;;;12.00;99.90;;;;;;5004769;28;20428;-75
2023/04/14 05:23:42;;;;;;;8.98;4.85;;;12.20;99.90;;;;;;4979553;28;20806;-75
2023/04/14 05:26:11;;;;;;;10.07;4.63;;;12.30;99.90;;;;;;4977471;28;20581;-75
2023/04/14 05:28:39;;;;;;;7.25;4.60;;;12.40;99.90;;;;;;4975132;28;20424;-75
2023/04/14 05:31:06;;;;;;;9.38;4.50;;;12.50;99.90;;;;;;4977492;28;20419;-75
2023/04/14 05:33:33;;;;;;;11.80;5.25;;;12.50;99.90;;;;;;4976110;28;20435;-75
2023/04/14 05:36:00;;;;;;;7.85;4.75;;;12.60;99.90;;;;;;4970581;28;20447;-75
2023/04/14 05:38:26;;;;;;;11.27;4.72;;;12.70;99.90;;;;;;4983115;28;20530;-75
2023/04/14 05:40:53;;;;;;;9.38;4.53;;;12.80;99.90;;;;;;4978168;28;20452;-75
2023/04/14 05:43:19;;;;;;;9.07;4.50;;;12.80;99.90;;;;;;4981397;28;20515;-75
2023/04/14 05:45:48;;;;;;;10.25;4.45;;;12.90;99.90;;;;;;4979958;28;20429;-75
2023/04/14 05:48:16;;;;;;;8.35;4.18;;;13.00;99.90;;;;;;4979159;28;20425;-75
2023/04/14 05:50:42;;;;;;;8.18;4.35;;;13.10;99.90;;;;;;4981000;28;20463;-75
2023/04/14 05:53:10;;;;;;;7.38;4.40;;;13.10;99.90;;;;;;4983970;28;20457;-75
2023/04/14 05:55:39;;;;;;;9.52;4.60;;;13.10;99.90;;;;;;4987517;28;20426;-75
2023/04/14 05:58:05;;;;;;;8.52;4.35;;;13.20;99.90;;;;;;4982794;28;20405;-75
2023/04/14 06:00:32;;;;;;;7.15;4.10;;;13.30;99.90;;;;;;4987419;28;20413;-75
2023/04/14 06:02:58;;;;;;;7.80;4.22;;;13.50;99.90;;;;;;4982101;28;20447;-75
2023/04/14 06:05:24;;;;;;;6.32;3.80;;;13.50;99.90;;;;;;4983161;28;20844;-75
2023/04/14 06:07:50;;;;;;;7.00;3.80;;;13.60;99.90;;;;;;5015479;28;20404;-75
2023/04/14 06:10:17;;;;;;;5.78;3.58;;;13.50;99.90;;;;;;4989652;28;20412;-75
2023/04/14 06:12:43;;;;;;;6.27;4.00;;;13.50;99.90;;;;;;4979856;28;20416;-75
2023/04/14 06:15:09;;;;;;;5.88;3.70;;;13.50;99.90;;;;;;4976514;28;20418;-75
2023/04/14 06:17:36;;;;;;;5.57;3.50;;;13.40;99.90;;;;;;4992331;28;20919;-76
2023/04/14 06:20:03;;;;;;;7.60;3.83;;;13.40;99.90;;;;;;4986791;28;20755;-76
2023/04/14 06:22:31;;;;;;;4.95;3.35;;;13.40;99.90;;;;;;4995130;28;20427;-76
2023/04/14 06:24:57;;;;;;;7.03;3.78;;;13.40;99.90;;;;;;4980898;28;20428;-76
2023/04/14 06:27:25;;;;;;;6.32;4.00;;;13.40;99.90;;;;;;4981678;28;20430;-76
2023/04/14 06:29:52;;;;;;;6.47;3.70;;;13.50;99.90;;;;;;4984453;28;20416;-76
2023/04/14 06:32:19;;;;;;;7.72;4.05;;;13.60;99.90;;;;;;4981805;28;20438;-76
2023/04/14 06:34:49;;;;;;;6.78;4.05;;;13.60;99.90;;;;;;4987298;28;20871;-76
2023/04/14 06:37:15;;;;;;;7.20;4.13;;;13.70;99.90;;;;;;4976134;28;20824;-75
2023/04/14 06:39:42;;;;;;;9.48;4.40;;;13.80;99.90;;;;;;4984811;28;21288;-76
2023/04/14 06:42:11;;;;;;;6.28;4.03;;;13.80;99.90;;;;;;4978460;28;20427;-76
2023/04/14 06:44:39;;;;;;;7.82;3.90;;;13.80;99.90;;;;;;4979055;28;22831;-76
2023/04/14 06:47:06;;;;;;;6.57;4.17;;;14.00;99.90;;;;;;4977020;28;20412;-74
2023/04/14 06:49:32;;;;;;;8.32;4.30;;;14.00;99.90;;;;;;4984898;28;20961;-73
2023/04/14 06:51:58;;;;;;;6.30;3.83;;;14.10;99.90;;;;;;4978570;28;20415;-75
2023/04/14 06:54:24;;;;;;;5.78;3.90;;;14.20;99.90;;;;;;4975976;28;20435;-75
2023/04/14 06:56:51;;;;;;;6.88;4.63;;;14.20;99.90;;;;;;4974423;28;20415;-74
2023/04/14 06:59:19;;;;;;;6.70;4.30;;;14.20;99.90;;;;;;4985537;28;20426;-74
2023/04/14 07:01:46;;;;;;;7.32;4.10;;;14.40;99.90;;;;;;4999083;28;20418;-73
2023/04/14 07:04:14;;;;;;;6.20;3.95;;;14.70;99.90;;;;;;4984120;28;20418;-74
2023/04/14 07:06:40;;;;;;;7.20;4.30;;;14.70;99.90;;;;;;4976122;28;20414;-74
2023/04/14 07:09:06;;;;;;;9.52;4.30;;;14.60;99.90;;;;;;4960333;28;20493;-74
2023/04/14 07:11:32;;;;;;;7.32;4.00;;;14.60;99.90;;;;;;4979394;28;20415;-74
2023/04/14 07:13:59;;;;;;;9.70;4.20;;;14.70;99.90;;;;;;4982092;28;20439;-74
2023/04/14 07:16:25;;;;;;;7.90;4.10;;;14.70;99.90;;;;;;4982463;28;20420;-74
2023/04/14 07:18:51;;;;;;;10.63;4.40;;;14.90;99.90;;;;;;4983531;28;20460;-75
2023/04/14 07:21:17;;;;;;;10.70;4.37;;;15.10;99.90;;;;;;4981882;28;20506;-74
2023/04/14 07:23:44;;;;;;;8.20;4.30;;;15.30;99.90;;;;;;4998043;28;20780;-74
2023/04/14 07:26:10;;;;;;;7.63;3.83;;;15.40;99.90;;;;;;4976826;28;20423;-75
2023/04/14 07:28:37;;;;;;;11.13;4.38;;;15.40;99.90;;;;;;4997761;28;20942;-75
2023/04/14 07:31:10;;;;;;;10.30;4.30;;;15.40;99.90;;;;;;5001989;28;20771;-75
2023/04/14 07:33:36;;;;;;;8.15;4.20;;;15.60;99.90;;;;;;4978906;28;20418;-74
2023/04/14 07:36:03;;;;;;;8.50;4.17;;;15.70;99.90;;;;;;4974813;28;20495;-75
2023/04/14 07:38:34;;;;;;;9.95;6.13;;;15.70;99.90;;;;;;5003805;28;20468;-75
2023/04/14 07:41:05;;;;;;;10.13;4.80;;;15.60;99.90;;;;;;4973339;28;20409;-74
2023/04/14 07:43:35;;;;;;;8.43;4.10;;;15.50;99.90;;;;;;4974068;28;20415;-74
2023/04/14 07:46:06;;;;;;;7.15;3.95;;;15.60;99.90;;;;;;4982467;28;21098;-75
2023/04/14 07:48:37;;;;;;;8.00;4.25;;;15.60;99.90;;;;;;4974386;28;20454;-75
2023/04/14 07:51:05;;;;;;;7.88;4.15;;;16.00;99.90;;;;;;4973381;28;20420;-75
2023/04/14 07:53:32;;;;;;;6.17;3.63;;;16.10;99.90;;;;;;4969894;28;20471;-75
2023/04/14 07:55:59;;;;;;;7.43;3.88;;;16.00;99.90;;;;;;4958233;28;20432;-74
2023/04/14 07:58:26;;;;;;;6.78;3.67;;;16.20;99.90;;;;;;4969610;28;20913;-74
2023/04/14 08:00:53;;;;;;;6.25;3.40;;;16.40;99.90;;;;;;4961390;28;20426;-74
2023/04/14 08:03:19;;;;;;;7.85;3.92;;;16.20;99.90;;;;;;4996547;28;20426;-74
2023/04/14 08:05:46;;;;;;;7.28;4.05;;;16.20;99.90;;;;;;4978150;28;20546;-74
2023/04/14 08:08:13;;;;;;;10.82;4.00;;;16.30;99.90;;;;;;4974662;28;20433;-74
2023/04/14 08:10:41;;;;;;;7.65;3.72;;;16.40;99.90;;;;;;4970665;28;20427;-75
2023/04/14 08:13:07;;;;;;;7.20;3.88;;;16.60;99.90;;;;;;4979837;28;20438;-74
2023/04/14 08:15:34;;;;;;;7.78;3.90;;;16.60;99.90;;;;;;4976587;28;20415;-74
2023/04/14 08:18:00;;;;;;;6.57;3.42;;;16.60;99.90;;;;;;4996321;28;20417;-74
2023/04/14 08:20:27;;;;;;;7.30;3.97;;;16.50;99.90;;;;;;4959481;28;20415;-75
2023/04/14 08:22:56;;;;;;;7.30;3.83;;;16.50;99.90;;;;;;4977701;28;20514;-74
2023/04/14 08:25:22;;;;;;;7.85;4.18;;;16.60;99.90;;;;;;4972695;28;20424;-75
2023/04/14 08:27:48;;;;;;;7.38;4.00;;;16.70;99.90;;;;;;4963541;28;20918;-75
2023/04/14 08:30:15;;;;;;;7.50;3.80;;;16.90;99.90;;;;;;4976213;28;20874;-75
2023/04/14 08:32:41;;;;;;;7.30;3.75;;;17.10;99.90;;;;;;4969974;28;20454;-73
2023/04/14 08:35:08;;;;;;;6.28;3.70;;;17.10;99.90;;;;;;4982686;28;20422;-73
2023/04/14 08:37:35;;;;;;;6.82;3.72;;;17.20;99.90;;;;;;4971685;28;20438;-73
2023/04/14 08:40:02;;;;;;;7.65;3.67;;;17.20;99.90;;;;;;4978132;28;20423;-74
2023/04/14 08:42:28;;;;;;;10.02;3.80;;;17.40;99.90;;;;;;4964826;28;20499;-74
2023/04/14 08:44:55;;;;;;;8.43;3.80;;;17.50;99.90;;;;;;4973501;28;20425;-73
2023/04/14 08:47:23;;;;;;;7.95;4.18;;;17.40;99.90;;;;;;4974671;28;20441;-74
2023/04/14 08:50:03;;;;;;;10.18;5.10;;;17.40;99.90;;;;;;4986631;28;20831;-74
2023/04/14 08:52:34;;;;;;;13.23;4.07;;;17.50;99.90;;;;;;4983720;28;20434;-74
2023/04/14 08:55:03;;;;;;;6.43;3.72;;;17.60;99.90;;;;;;4977780;28;20410;-75
2023/04/14 08:57:32;;;;;;;8.73;3.90;;;17.70;99.90;;;;;;4976205;28;20964;-75
2023/04/14 09:00:01;;;;;;;7.93;3.90;;;17.70;99.90;;;;;;4975944;28;21178;-75
2023/04/14 09:02:27;;;;;;;6.82;3.67;;;17.80;99.90;;;;;;4972575;28;20828;-75
2023/04/14 09:04:56;;;;;;;6.75;3.92;;;17.80;99.90;;;;;;4972862;28;20446;-75
2023/04/14 09:07:23;;;;;;;8.67;3.97;;;18.20;99.90;;;;;;4975857;28;20432;-75
2023/04/14 09:09:49;;;;;;;7.88;3.83;;;18.20;99.90;;;;;;4976499;28;20784;-75
2023/04/14 09:12:16;;;;;;;8.35;4.00;;;18.10;99.90;;;;;;4973559;28;20511;-75
2023/04/14 09:14:45;;;;;;;7.57;3.70;;;18.10;99.90;;;;;;4977498;28;20842;-75
2023/04/14 09:17:11;;;;;;;8.57;3.67;;;18.10;99.90;;;;;;4975217;28;20444;-75
2023/04/14 09:19:38;;;;;;;7.22;4.00;;;18.20;99.90;;;;;;4979619;28;20429;-75
2023/04/14 09:22:05;;;;;;;8.13;3.90;;;18.60;99.90;;;;;;4974868;28;21061;-75
2023/04/14 09:24:33;;;;;;;8.80;4.07;;;18.70;99.90;;;;;;4971406;28;20495;-75
2023/04/14 09:27:04;;;;;;;10.15;4.57;;;18.70;99.90;;;;;;4973668;28;20426;-75
2023/04/14 09:29:32;;;;;;;7.85;4.03;;;18.60;99.90;;;;;;4973831;28;20462;-75
2023/04/14 09:31:58;;;;;;;8.57;4.30;;;18.40;99.90;;;;;;4986092;28;20448;-74
2023/04/14 09:34:25;;;;;;;9.50;4.30;;;18.40;99.90;;;;;;4972325;28;20463;-75
2023/04/14 09:37:09;;;;;;;8.77;4.63;;;18.40;99.90;;;;;;5002181;28;20427;-75
2023/04/14 09:39:46;;;;;;;8.63;4.20;;;18.50;99.90;;;;;;4977875;28;20431;-75
2023/04/14 09:42:13;;;;;;;9.23;4.40;;;18.70;99.90;;;;;;4971677;28;20508;-75
2023/04/14 09:44:56;;;;;;;9.98;4.10;;;19.00;99.90;;;;;;4980532;28;20517;-75
2023/04/14 09:47:23;;;;;;;8.77;3.70;;;19.20;99.90;;;;;;4983217;28;20412;-75
2023/04/14 09:50:03;;;;;;;8.85;4.20;;;19.40;99.90;;;;;;4969585;28;20416;-75
2023/04/14 09:52:43;;;;;;;7.93;3.95;;;19.80;99.90;;;;;;4976644;28;20427;-75
2023/04/14 09:55:15;;;;;;;10.55;4.00;;;20.00;99.90;;;;;;4979989;28;20478;-75
2023/04/14 09:57:46;;;;;;;9.02;4.00;;;20.00;99.90;;;;;;4984999;28;21272;-75
2023/04/14 10:00:15;;;;;;;9.27;3.97;;;20.10;99.90;;;;;;4973657;28;20415;-75
2023/04/14 10:02:50;;;;;;;9.80;4.50;;;20.20;99.90;;;;;;4979359;28;20792;-75
2023/04/14 10:05:26;;;;;;;9.18;4.28;;;20.10;99.90;;;;;;4974555;28;20465;-75
2023/04/14 10:07:52;;;;;;;10.30;4.70;;;20.00;99.90;;;;;;4980729;28;20410;-75
2023/04/14 10:10:18;;;;;;;9.57;4.38;;;19.80;99.90;;;;;;4974340;28;20997;-75
2023/04/14 10:12:45;;;;;;;10.55;4.35;;;19.40;99.90;;;;;;4981095;28;20495;-75
2023/04/14 10:15:14;;;;;;;9.20;4.10;;;19.30;99.90;;;;;;4975864;28;20465;-75
2023/04/14 10:17:41;;;;;;;8.32;4.20;;;19.10;99.90;;;;;;4972827;28;20409;-75
2023/04/14 10:20:09;;;;;;;9.73;4.50;;;18.90;99.90;;;;;;5001176;28;20603;-75
2023/04/14 10:22:36;;;;;;;9.07;4.20;;;18.70;99.90;;;;;;4975608;28;20416;-75
2023/04/14 10:25:04;;;;;;;9.63;4.30;;;18.50;99.90;;;;;;4982431;28;20980;-75
2023/04/14 10:27:32;;;;;;;10.63;4.40;;;18.50;99.90;;;;;;4993239;28;20432;-75
2023/04/14 10:29:59;;;;;;;9.48;4.40;;;18.50;99.90;;;;;;4975292;28;20441;-75
2023/04/14 10:32:34;;;;;;;10.57;4.45;;;18.30;99.90;;;;;;4981473;28;20398;-75
2023/04/14 10:35:11;;;;;;;9.00;4.57;;;17.90;99.90;;;;;;4979718;28;20476;-75
2023/04/14 10:37:37;;;;;;;10.23;4.15;;;17.80;99.90;;;;;;4979544;28;20456;-74
2023/04/14 10:40:06;;;;;;;9.10;4.60;;;18.20;99.90;;;;;;4972412;28;21167;-75
2023/04/14 10:42:53;;;;;;;9.82;4.30;;;18.70;99.90;;;;;;4978109;28;20443;-75
2023/04/14 10:45:20;;;;;;;9.65;4.40;;;18.70;99.90;;;;;;4991740;28;20433;-75
2023/04/14 10:47:48;;;;;;;10.90;4.72;;;18.60;99.90;;;;;;4982210;28;20502;-75
2023/04/14 10:50:19;;;;;;;8.02;4.15;;;18.60;99.90;;;;;;4976577;28;20426;-75
2023/04/14 10:52:57;;;;;;;11.00;4.63;;;18.50;99.90;;;;;;4977077;28;20914;-75
2023/04/14 10:55:27;;;;;;;10.00;4.45;;;18.30;99.90;;;;;;4971851;28;20431;-75
2023/04/14 10:58:07;;;;;;;8.63;3.90;;;18.30;99.90;;;;;;4988516;28;20420;-75
2023/04/14 11:00:38;;;;;;;9.50;3.97;;;18.40;99.90;;;;;;4977840;28;20415;-75
2023/04/14 11:03:10;;;;;;;8.55;3.92;;;18.40;99.90;;;;;;4973051;28;20925;-75
2023/04/14 11:05:50;;;;;;;9.75;4.05;;;18.10;99.90;;;;;;4976068;28;20415;-75
2023/04/14 11:08:25;;;;;;;8.80;4.00;;;17.90;99.90;;;;;;4972973;28;20529;-75
2023/04/14 11:11:05;;;;;;;10.10;4.50;;;18.20;99.90;;;;;;4985152;28;20432;-75
2023/04/14 11:13:33;;;;;;;10.80;4.55;;;18.00;99.90;;;;;;4980151;28;20429;-75
2023/04/14 11:16:06;;;;;;;8.02;4.10;;;17.80;99.90;;;;;;4979304;28;20425;-75
2023/04/14 11:18:44;;;;;;;8.57;4.03;;;18.00;99.90;;;;;;4996899;28;20454;-75
2023/04/14 11:21:14;;;;;;;13.75;4.65;;;18.10;99.90;;;;;;4982056;28;20422;-75
2023/04/14 11:23:41;;;;;;;10.07;4.30;;;18.30;99.90;;;;;;4979257;28;20415;-75
2023/04/14 11:26:10;;;;;;;8.40;4.28;;;18.50;99.90;;;;;;4980840;28;20801;-75
2023/04/14 11:28:45;;;;;;;9.70;4.37;;;18.50;99.90;;;;;;4994132;28;20435;-75
2023/04/14 11:31:16;;;;;;;11.75;4.55;;;18.30;99.90;;;;;;4977386;28;20425;-75
2023/04/14 11:33:43;;;;;;;9.80;4.53;;;18.10;99.90;;;;;;4976095;28;20426;-75
2023/04/14 11:36:11;;;;;;;13.02;4.82;;;18.20;99.90;;;;;;4981568;28;20425;-75
2023/04/14 11:38:39;;;;;;;9.77;4.40;;;18.20;99.90;;;;;;4974178;28;20439;-75
2023/04/14 11:41:06;;;;;;;10.10;4.27;;;18.10;99.90;;;;;;4976429;28;20430;-75
2023/04/14 11:43:33;;;;;;;10.98;4.88;;;17.80;99.90;;;;;;4976488;28;20562;-75
2023/04/14 11:46:00;;;;;;;10.40;4.67;;;17.40;99.90;;;;;;4985923;28;20464;-75
2023/04/14 11:48:29;;;;;;;12.30;4.70;;;17.30;99.90;;;;;;4982066;28;20478;-75
2023/04/14 11:51:01;;;;;;;11.93;4.60;;;17.30;99.90;;;;;;4999584;28;20462;-75
2023/04/14 11:53:27;;;;;;;14.23;4.85;;;17.10;99.90;;;;;;4979374;28;20446;-75
2023/04/14 11:55:56;;;;;;;10.50;4.40;;;17.30;99.90;;;;;;4978342;28;20425;-75
2023/04/14 11:58:25;;;;;;;10.80;4.80;;;17.30;99.90;;;;;;4957856;28;20422;-75
2023/04/14 12:00:53;;;;;;;9.55;4.50;;;17.50;99.90;;;;;;4985239;28;20408;-75
2023/04/14 12:03:20;;;;;;;11.20;4.65;;;17.40;99.90;;;;;;4978133;28;20421;-75
2023/04/14 12:05:48;;;;;;;11.23;4.75;;;17.30;99.90;;;;;;4976154;28;20421;-75
2023/04/14 12:08:14;;;;;;;12.02;4.88;;;17.20;99.90;;;;;;4988789;28;20433;-75
2023/04/14 12:10:41;;;;;;;10.73;4.75;;;17.20;99.90;;;;;;4989201;28;20412;-75
2023/04/14 12:13:10;;;;;;;11.00;4.68;;;17.00;99.90;;;;;;4981520;28;20491;-74
2023/04/14 12:15:41;;;;;;;10.15;4.30;;;16.80;99.90;;;;;;4972021;28;20814;-74
2023/04/14 12:18:13;;;;;;;11.18;4.50;;;16.90;99.90;;;;;;4977753;28;21097;-75
2023/04/14 12:20:52;;;;;;;10.70;4.30;;;16.60;99.90;;;;;;4976847;28;20800;-74
2023/04/14 12:23:19;;;;;;;12.23;4.85;;;16.40;99.90;;;;;;4981186;28;21135;-75
2023/04/14 12:25:48;;;;;;;10.63;4.68;;;16.30;99.90;;;;;;4972428;28;20435;-75
2023/04/14 12:28:24;;;;;;;12.10;4.55;;;16.20;99.90;;;;;;4975005;28;20415;-74
2023/04/14 12:30:53;;;;;;;13.02;5.00;;;16.10;99.90;;;;;;4970823;28;20404;-74
2023/04/14 12:33:23;;;;;;;15.05;5.03;;;16.00;99.90;;;;;;4979634;28;20748;-74
2023/04/14 12:35:53;;;;;;;12.32;4.65;;;16.00;99.90;;;;;;4981315;28;20858;-75
2023/04/14 12:38:29;;;;;;;11.80;4.88;;;16.20;99.90;;;;;;4960738;28;21089;-75
2023/04/14 12:40:55;;;;;;;8.35;4.82;;;16.30;99.90;;;;;;4986922;28;20508;-75
2023/04/14 12:43:34;;;;;;;10.57;4.70;;;16.30;99.90;;;;;;4980156;28;20502;-74
2023/04/14 12:46:06;;;;;;;11.93;4.70;;;16.20;99.90;;;;;;4983651;28;20523;-75
2023/04/14 12:48:47;;;;;;;11.53;4.67;;;16.00;99.90;;;;;;4977731;28;20422;-75
2023/04/14 12:51:18;;;;;;;11.32;5.15;;;15.90;99.90;;;;;;4972478;28;20424;-75
2023/04/14 12:53:48;;;;;;;11.30;4.85;;;16.20;99.90;;;;;;4970510;28;20416;-75
2023/04/14 12:56:22;;;;;;;9.18;4.03;;;16.40;99.90;;;;;;4981224;28;20412;-75